sensor_id;sensor_type;location;lat;lon;timestamp;pressure;altitude;pressure_sealevel;temperature
74493;BMP180;62978;51.094;-115.362;2022-09-17T00:01:32;86464.00;;;15.82
74493;BMP180;62978;51.094;-115.362;2022-09-17T00:04:00;86468.40;;;15.58
74493;BMP180;62978;51.094;-115.362;2022-09-17T00:06:32;86471.40;;;15.42
74493;BMP180;62978;51.094;-115.362;2022-09-17T00:09:00;86475.20;;;15.26
74493;BMP180;62978;51.094;-115.362;2022-09-17T00:11:32;86479.40;;;15.20
74493;BMP180;62978;51.094;-115.362;2022-09-17T00:14:03;86481.80;;;15.20
74493;BMP180;62978;51.094;-115.362;2022-09-17T00:16:36;86478.80;;;15.20
74493;BMP180;62978;51.094;-115.362;2022-09-17T00:19:05;86479.40;;;15.10
74493;BMP180;62978;51.094;-115.362;2022-09-17T00:21:34;86481.60;;;15.00
74493;BMP180;62978;51.094;-115.362;2022-09-17T00:24:05;86472.60;;;15.00
74493;BMP180;62978;51.094;-115.362;2022-09-17T00:26:34;86464.40;;;14.90
74493;BMP180;62978;51.094;-115.362;2022-09-17T00:29:04;86459.80;;;14.90
74493;BMP180;62978;51.094;-115.362;2022-09-17T00:31:32;86464.60;;;14.90
74493;BMP180;62978;51.094;-115.362;2022-09-17T00:34:02;86462.60;;;14.80
74493;BMP180;62978;51.094;-115.362;2022-09-17T00:36:30;86461.60;;;14.60
74493;BMP180;62978;51.094;-115.362;2022-09-17T00:38:58;86455.40;;;14.40
74493;BMP180;62978;51.094;-115.362;2022-09-17T00:41:30;86454.40;;;14.20
74493;BMP180;62978;51.094;-115.362;2022-09-17T00:44:01;86455.00;;;14.00
74493;BMP180;62978;51.094;-115.362;2022-09-17T00:46:49;86454.20;;;13.80
74493;BMP180;62978;51.094;-115.362;2022-09-17T00:49:29;86451.80;;;13.80
74493;BMP180;62978;51.094;-115.362;2022-09-17T00:52:06;86452.20;;;13.70
74493;BMP180;62978;51.094;-115.362;2022-09-17T00:54:43;86444.00;;;13.70
74493;BMP180;62978;51.094;-115.362;2022-09-17T00:57:11;86436.60;;;13.58
74493;BMP180;62978;51.094;-115.362;2022-09-17T00:59:38;86443.20;;;13.50
74493;BMP180;62978;51.094;-115.362;2022-09-17T01:02:07;86443.00;;;13.40
74493;BMP180;62978;51.094;-115.362;2022-09-17T01:04:34;86438.40;;;13.26
74493;BMP180;62978;51.094;-115.362;2022-09-17T01:14:12;86443.80;;;12.88
74493;BMP180;62978;51.094;-115.362;2022-09-17T01:17:05;86444.40;;;12.70
74493;BMP180;62978;51.094;-115.362;2022-09-17T01:25:24;86445.20;;;12.40
74493;BMP180;62978;51.094;-115.362;2022-09-17T01:31:02;86446.20;;;12.28
74493;BMP180;62978;51.094;-115.362;2022-09-17T01:39:59;86442.40;;;12.00
74493;BMP180;62978;51.094;-115.362;2022-09-17T01:45:48;86428.60;;;11.82
74493;BMP180;62978;51.094;-115.362;2022-09-17T01:48:19;86430.60;;;11.70
74493;BMP180;62978;51.094;-115.362;2022-09-17T01:56:21;86426.80;;;11.38
74493;BMP180;62978;51.094;-115.362;2022-09-17T02:02:26;86427.40;;;11.10
74493;BMP180;62978;51.094;-115.362;2022-09-17T02:05:09;86431.00;;;10.90
74493;BMP180;62978;51.094;-115.362;2022-09-17T02:08:02;86434.60;;;10.90
74493;BMP180;62978;51.094;-115.362;2022-09-17T02:10:38;86437.60;;;10.80
74493;BMP180;62978;51.094;-115.362;2022-09-17T02:13:17;86441.00;;;10.80
74493;BMP180;62978;51.094;-115.362;2022-09-17T02:15:56;86444.60;;;10.80
74493;BMP180;62978;51.094;-115.362;2022-09-17T02:18:36;86439.00;;;10.82
74493;BMP180;62978;51.094;-115.362;2022-09-17T02:24:26;86428.40;;;10.80
74493;BMP180;62978;51.094;-115.362;2022-09-17T02:29:56;86421.60;;;10.70
74493;BMP180;62978;51.094;-115.362;2022-09-17T02:32:23;86423.60;;;10.60
74493;BMP180;62978;51.094;-115.362;2022-09-17T02:34:51;86421.20;;;10.50
74493;BMP180;62978;51.094;-115.362;2022-09-17T02:37:21;86417.60;;;10.30
74493;BMP180;62978;51.094;-115.362;2022-09-17T02:39:49;86419.40;;;10.26
74493;BMP180;62978;51.094;-115.362;2022-09-17T02:43:00;86420.20;;;10.20
74493;BMP180;62978;51.094;-115.362;2022-09-17T02:54:23;86399.20;;;9.90
74493;BMP180;62978;51.094;-115.362;2022-09-17T02:57:44;86395.00;;;9.90
74493;BMP180;62978;51.094;-115.362;2022-09-17T03:00:19;86387.00;;;10.00
74493;BMP180;62978;51.094;-115.362;2022-09-17T03:05:39;86396.20;;;9.90
74493;BMP180;62978;51.094;-115.362;2022-09-17T03:08:12;86390.00;;;9.86
74493;BMP180;62978;51.094;-115.362;2022-09-17T03:10:40;86380.20;;;9.80
74493;BMP180;62978;51.094;-115.362;2022-09-17T03:13:08;86378.60;;;9.80
74493;BMP180;62978;51.094;-115.362;2022-09-17T03:15:35;86373.60;;;9.80
74493;BMP180;62978;51.094;-115.362;2022-09-17T03:18:02;86374.80;;;9.80
74493;BMP180;62978;51.094;-115.362;2022-09-17T03:20:30;86373.00;;;9.70
74493;BMP180;62978;51.094;-115.362;2022-09-17T03:22:59;86367.40;;;9.70
74493;BMP180;62978;51.094;-115.362;2022-09-17T03:25:27;86367.60;;;9.60
74493;BMP180;62978;51.094;-115.362;2022-09-17T03:27:55;86375.60;;;9.50
74493;BMP180;62978;51.094;-115.362;2022-09-17T03:30:22;86376.20;;;9.40
74493;BMP180;62978;51.094;-115.362;2022-09-17T03:32:50;86374.60;;;9.40
74493;BMP180;62978;51.094;-115.362;2022-09-17T03:35:17;86367.00;;;9.44
74493;BMP180;62978;51.094;-115.362;2022-09-17T03:37:44;86371.60;;;9.50
74493;BMP180;62978;51.094;-115.362;2022-09-17T03:40:13;86372.80;;;9.50
74493;BMP180;62978;51.094;-115.362;2022-09-17T03:42:40;86372.80;;;9.42
74493;BMP180;62978;51.094;-115.362;2022-09-17T03:45:08;86370.80;;;9.40
74493;BMP180;62978;51.094;-115.362;2022-09-17T03:47:36;86365.00;;;9.48
74493;BMP180;62978;51.094;-115.362;2022-09-17T03:50:05;86354.20;;;9.50
74493;BMP180;62978;51.094;-115.362;2022-09-17T03:52:32;86353.60;;;9.50
74493;BMP180;62978;51.094;-115.362;2022-09-17T03:55:00;86346.40;;;9.50
74493;BMP180;62978;51.094;-115.362;2022-09-17T03:57:27;86339.40;;;9.50
74493;BMP180;62978;51.094;-115.362;2022-09-17T03:59:54;86337.40;;;9.50
74493;BMP180;62978;51.094;-115.362;2022-09-17T04:02:25;86344.60;;;9.50
74493;BMP180;62978;51.094;-115.362;2022-09-17T04:04:53;86358.00;;;9.50
74493;BMP180;62978;51.094;-115.362;2022-09-17T04:07:20;86355.60;;;9.50
74493;BMP180;62978;51.094;-115.362;2022-09-17T04:09:48;86354.00;;;9.40
74493;BMP180;62978;51.094;-115.362;2022-09-17T04:12:16;86351.00;;;9.40
74493;BMP180;62978;51.094;-115.362;2022-09-17T04:14:43;86349.40;;;9.40
74493;BMP180;62978;51.094;-115.362;2022-09-17T04:17:11;86347.40;;;9.48
74493;BMP180;62978;51.094;-115.362;2022-09-17T04:19:44;86342.00;;;9.40
74493;BMP180;62978;51.094;-115.362;2022-09-17T04:22:11;86341.60;;;9.46
74493;BMP180;62978;51.094;-115.362;2022-09-17T04:24:38;86340.20;;;9.50
74493;BMP180;62978;51.094;-115.362;2022-09-17T04:27:06;86338.80;;;9.50
74493;BMP180;62978;51.094;-115.362;2022-09-17T04:29:33;86340.20;;;9.50
74493;BMP180;62978;51.094;-115.362;2022-09-17T04:32:00;86330.60;;;9.50
74493;BMP180;62978;51.094;-115.362;2022-09-17T04:34:28;86343.20;;;9.60
74493;BMP180;62978;51.094;-115.362;2022-09-17T04:36:55;86346.20;;;9.60
74493;BMP180;62978;51.094;-115.362;2022-09-17T04:39:22;86344.80;;;9.60
74493;BMP180;62978;51.094;-115.362;2022-09-17T04:41:50;86347.00;;;9.60
74493;BMP180;62978;51.094;-115.362;2022-09-17T04:44:17;86344.80;;;9.60
74493;BMP180;62978;51.094;-115.362;2022-09-17T04:46:44;86356.00;;;9.60
74493;BMP180;62978;51.094;-115.362;2022-09-17T04:49:12;86361.00;;;9.60
74493;BMP180;62978;51.094;-115.362;2022-09-17T04:51:39;86355.20;;;9.60
74493;BMP180;62978;51.094;-115.362;2022-09-17T04:54:06;86350.60;;;9.70
74493;BMP180;62978;51.094;-115.362;2022-09-17T04:56:34;86343.60;;;9.70
74493;BMP180;62978;51.094;-115.362;2022-09-17T04:59:01;86345.80;;;9.66
74493;BMP180;62978;51.094;-115.362;2022-09-17T05:01:29;86353.60;;;9.70
74493;BMP180;62978;51.094;-115.362;2022-09-17T05:03:56;86352.20;;;9.72
74493;BMP180;62978;51.094;-115.362;2022-09-17T05:06:24;86350.40;;;9.78
74493;BMP180;62978;51.094;-115.362;2022-09-17T05:08:51;86355.80;;;9.80
74493;BMP180;62978;51.094;-115.362;2022-09-17T05:11:18;86355.20;;;9.80
74493;BMP180;62978;51.094;-115.362;2022-09-17T05:13:46;86355.40;;;9.80
74493;BMP180;62978;51.094;-115.362;2022-09-17T05:16:13;86359.40;;;9.90
74493;BMP180;62978;51.094;-115.362;2022-09-17T05:18:40;86367.80;;;9.90
74493;BMP180;62978;51.094;-115.362;2022-09-17T05:21:08;86373.00;;;9.98
74493;BMP180;62978;51.094;-115.362;2022-09-17T05:23:36;86378.60;;;10.00
74493;BMP180;62978;51.094;-115.362;2022-09-17T05:26:03;86387.60;;;10.00
74493;BMP180;62978;51.094;-115.362;2022-09-17T05:28:30;86389.80;;;10.00
74493;BMP180;62978;51.094;-115.362;2022-09-17T05:31:02;86396.40;;;10.00
74493;BMP180;62978;51.094;-115.362;2022-09-17T05:33:29;86401.40;;;10.00
74493;BMP180;62978;51.094;-115.362;2022-09-17T05:35:56;86420.40;;;9.90
74493;BMP180;62978;51.094;-115.362;2022-09-17T05:38:24;86436.60;;;9.70
74493;BMP180;62978;51.094;-115.362;2022-09-17T05:40:51;86448.00;;;9.54
74493;BMP180;62978;51.094;-115.362;2022-09-17T05:43:19;86453.60;;;9.40
74493;BMP180;62978;51.094;-115.362;2022-09-17T05:45:46;86460.20;;;9.20
74493;BMP180;62978;51.094;-115.362;2022-09-17T05:48:14;86435.40;;;9.02
74493;BMP180;62978;51.094;-115.362;2022-09-17T05:50:42;86427.40;;;8.90
74493;BMP180;62978;51.094;-115.362;2022-09-17T05:53:13;86425.60;;;8.88
74493;BMP180;62978;51.094;-115.362;2022-09-17T05:55:41;86434.00;;;8.72
74493;BMP180;62978;51.094;-115.362;2022-09-17T05:58:17;86438.40;;;8.60
74493;BMP180;62978;51.094;-115.362;2022-09-17T06:00:46;86426.60;;;8.50
74493;BMP180;62978;51.094;-115.362;2022-09-17T06:03:16;86438.40;;;8.50
74493;BMP180;62978;51.094;-115.362;2022-09-17T06:05:56;86434.80;;;8.40
74493;BMP180;62978;51.094;-115.362;2022-09-17T06:08:26;86430.60;;;8.40
74493;BMP180;62978;51.094;-115.362;2022-09-17T06:10:54;86431.80;;;8.40
74493;BMP180;62978;51.094;-115.362;2022-09-17T06:13:21;86432.60;;;8.30
74493;BMP180;62978;51.094;-115.362;2022-09-17T06:15:52;86429.00;;;8.20
74493;BMP180;62978;51.094;-115.362;2022-09-17T06:18:20;86425.40;;;8.20
74493;BMP180;62978;51.094;-115.362;2022-09-17T06:20:56;86435.20;;;8.20
74493;BMP180;62978;51.094;-115.362;2022-09-17T06:23:24;86438.80;;;8.20
74493;BMP180;62978;51.094;-115.362;2022-09-17T06:25:57;86434.80;;;8.20
74493;BMP180;62978;51.094;-115.362;2022-09-17T06:28:26;86433.20;;;8.20
74493;BMP180;62978;51.094;-115.362;2022-09-17T06:30:53;86426.80;;;8.10
74493;BMP180;62978;51.094;-115.362;2022-09-17T06:33:23;86416.60;;;8.10
74493;BMP180;62978;51.094;-115.362;2022-09-17T06:36:04;86426.40;;;8.00
74493;BMP180;62978;51.094;-115.362;2022-09-17T06:38:34;86413.20;;;8.00
74493;BMP180;62978;51.094;-115.362;2022-09-17T06:41:02;86414.00;;;7.90
74493;BMP180;62978;51.094;-115.362;2022-09-17T06:43:30;86418.00;;;7.80
74493;BMP180;62978;51.094;-115.362;2022-09-17T06:46:03;86431.00;;;7.78
74493;BMP180;62978;51.094;-115.362;2022-09-17T06:48:36;86421.60;;;7.66
74493;BMP180;62978;51.094;-115.362;2022-09-17T06:51:06;86419.40;;;7.60
74493;BMP180;62978;51.094;-115.362;2022-09-17T06:53:35;86425.20;;;7.68
74493;BMP180;62978;51.094;-115.362;2022-09-17T06:56:05;86424.20;;;7.60
74493;BMP180;62978;51.094;-115.362;2022-09-17T06:58:34;86431.60;;;7.60
74493;BMP180;62978;51.094;-115.362;2022-09-17T07:01:05;86439.00;;;7.60
74493;BMP180;62978;51.094;-115.362;2022-09-17T07:03:33;86438.40;;;7.50
74493;BMP180;62978;51.094;-115.362;2022-09-17T07:06:00;86428.60;;;7.44
74493;BMP180;62978;51.094;-115.362;2022-09-17T07:08:27;86429.40;;;7.40
74493;BMP180;62978;51.094;-115.362;2022-09-17T07:10:58;86432.00;;;7.40
74493;BMP180;62978;51.094;-115.362;2022-09-17T07:13:25;86431.40;;;7.32
74493;BMP180;62978;51.094;-115.362;2022-09-17T07:15:58;86426.20;;;7.20
74493;BMP180;62978;51.094;-115.362;2022-09-17T07:18:26;86425.20;;;7.12
74493;BMP180;62978;51.094;-115.362;2022-09-17T07:20:56;86427.60;;;7.10
74493;BMP180;62978;51.094;-115.362;2022-09-17T07:23:26;86421.00;;;7.10
74493;BMP180;62978;51.094;-115.362;2022-09-17T07:26:14;86423.00;;;7.10
74493;BMP180;62978;51.094;-115.362;2022-09-17T07:28:43;86422.20;;;7.10
74493;BMP180;62978;51.094;-115.362;2022-09-17T07:31:12;86420.20;;;7.02
74493;BMP180;62978;51.094;-115.362;2022-09-17T07:33:40;86414.20;;;7.00
74493;BMP180;62978;51.094;-115.362;2022-09-17T07:36:12;86418.80;;;6.92
74493;BMP180;62978;51.094;-115.362;2022-09-17T07:38:39;86415.00;;;6.90
74493;BMP180;62978;51.094;-115.362;2022-09-17T07:41:12;86413.00;;;6.90
74493;BMP180;62978;51.094;-115.362;2022-09-17T07:43:40;86414.20;;;6.90
74493;BMP180;62978;51.094;-115.362;2022-09-17T07:46:20;86414.00;;;6.88
74493;BMP180;62978;51.094;-115.362;2022-09-17T07:48:48;86409.00;;;6.80
74493;BMP180;62978;51.094;-115.362;2022-09-17T07:51:18;86401.80;;;6.78
74493;BMP180;62978;51.094;-115.362;2022-09-17T07:53:53;86399.80;;;6.70
74493;BMP180;62978;51.094;-115.362;2022-09-17T07:56:22;86399.80;;;6.70
74493;BMP180;62978;51.094;-115.362;2022-09-17T07:58:50;86396.60;;;6.70
74493;BMP180;62978;51.094;-115.362;2022-09-17T08:01:18;86398.80;;;6.60
74493;BMP180;62978;51.094;-115.362;2022-09-17T08:03:51;86397.20;;;6.60
74493;BMP180;62978;51.094;-115.362;2022-09-17T08:06:22;86396.20;;;6.50
74493;BMP180;62978;51.094;-115.362;2022-09-17T08:08:51;86398.00;;;6.50
74493;BMP180;62978;51.094;-115.362;2022-09-17T08:11:23;86391.80;;;6.42
74493;BMP180;62978;51.094;-115.362;2022-09-17T08:13:53;86392.60;;;6.40
74493;BMP180;62978;51.094;-115.362;2022-09-17T08:16:21;86384.20;;;6.40
74493;BMP180;62978;51.094;-115.362;2022-09-17T08:18:54;86387.80;;;6.32
74493;BMP180;62978;51.094;-115.362;2022-09-17T08:21:22;86390.60;;;6.30
74493;BMP180;62978;51.094;-115.362;2022-09-17T08:23:50;86390.60;;;6.30
74493;BMP180;62978;51.094;-115.362;2022-09-17T08:26:20;86393.00;;;6.30
74493;BMP180;62978;51.094;-115.362;2022-09-17T08:28:51;86391.20;;;6.30
74493;BMP180;62978;51.094;-115.362;2022-09-17T08:31:22;86389.20;;;6.30
74493;BMP180;62978;51.094;-115.362;2022-09-17T08:33:50;86384.20;;;6.28
74493;BMP180;62978;51.094;-115.362;2022-09-17T08:36:18;86385.60;;;6.30
74493;BMP180;62978;51.094;-115.362;2022-09-17T08:38:52;86377.80;;;6.30
74493;BMP180;62978;51.094;-115.362;2022-09-17T08:47:41;86369.40;;;6.40
74493;BMP180;62978;51.094;-115.362;2022-09-17T08:49:56;86380.00;;;6.36
74493;BMP180;62978;51.094;-115.362;2022-09-17T09:00:53;86380.20;;;6.20
74493;BMP180;62978;51.094;-115.362;2022-09-17T09:06:10;86383.20;;;6.18
74493;BMP180;62978;51.094;-115.362;2022-09-17T09:08:45;86386.80;;;6.10
74493;BMP180;62978;51.094;-115.362;2022-09-17T09:11:21;86377.00;;;6.00
74493;BMP180;62978;51.094;-115.362;2022-09-17T09:16:40;86383.80;;;6.00
74493;BMP180;62978;51.094;-115.362;2022-09-17T09:19:28;86381.40;;;6.00
74493;BMP180;62978;51.094;-115.362;2022-09-17T09:22:44;86376.40;;;5.90
74493;BMP180;62978;51.094;-115.362;2022-09-17T09:28:04;86377.00;;;6.00
74493;BMP180;62978;51.094;-115.362;2022-09-17T09:33:40;86385.40;;;6.00
74493;BMP180;62978;51.094;-115.362;2022-09-17T09:36:15;86387.40;;;6.00
74493;BMP180;62978;51.094;-115.362;2022-09-17T09:39:03;86385.00;;;5.90
74493;BMP180;62978;51.094;-115.362;2022-09-17T09:41:52;86390.80;;;5.80
74493;BMP180;62978;51.094;-115.362;2022-09-17T09:44:24;86390.40;;;5.80
74493;BMP180;62978;51.094;-115.362;2022-09-17T09:50:17;86390.80;;;5.70
74493;BMP180;62978;51.094;-115.362;2022-09-17T09:56:09;86387.20;;;5.70
74493;BMP180;62978;51.094;-115.362;2022-09-17T09:58:41;86410.20;;;5.70
74493;BMP180;62978;51.094;-115.362;2022-09-17T10:01:16;86401.20;;;5.70
74493;BMP180;62978;51.094;-115.362;2022-09-17T10:03:47;86400.40;;;5.70
74493;BMP180;62978;51.094;-115.362;2022-09-17T10:06:18;86398.80;;;5.70
74493;BMP180;62978;51.094;-115.362;2022-09-17T10:11:26;86403.20;;;5.70
74493;BMP180;62978;51.094;-115.362;2022-09-17T10:16:40;86408.00;;;5.60
74493;BMP180;62978;51.094;-115.362;2022-09-17T10:21:41;86413.40;;;5.60
74493;BMP180;62978;51.094;-115.362;2022-09-17T10:24:29;86405.20;;;5.50
74493;BMP180;62978;51.094;-115.362;2022-09-17T10:27:17;86414.40;;;5.50
74493;BMP180;62978;51.094;-115.362;2022-09-17T10:29:49;86423.80;;;5.50
74493;BMP180;62978;51.094;-115.362;2022-09-17T10:32:22;86420.00;;;5.40
74493;BMP180;62978;51.094;-115.362;2022-09-17T10:37:51;86420.80;;;5.40
74493;BMP180;62978;51.094;-115.362;2022-09-17T10:42:53;86432.20;;;5.36
74493;BMP180;62978;51.094;-115.362;2022-09-17T10:45:38;86438.40;;;5.30
74493;BMP180;62978;51.094;-115.362;2022-09-17T10:48:18;86427.80;;;5.30
74493;BMP180;62978;51.094;-115.362;2022-09-17T10:50:55;86438.20;;;5.30
74493;BMP180;62978;51.094;-115.362;2022-09-17T10:53:25;86454.00;;;5.40
74493;BMP180;62978;51.094;-115.362;2022-09-17T10:56:34;86442.20;;;5.38
74493;BMP180;62978;51.094;-115.362;2022-09-17T11:05:39;86460.60;;;5.30
74493;BMP180;62978;51.094;-115.362;2022-09-17T11:08:33;86462.40;;;5.20
74493;BMP180;62978;51.094;-115.362;2022-09-17T11:11:33;86464.20;;;5.10
74493;BMP180;62978;51.094;-115.362;2022-09-17T11:23:51;86466.40;;;5.10
74493;BMP180;62978;51.094;-115.362;2022-09-17T11:26:35;86470.80;;;5.10
74493;BMP180;62978;51.094;-115.362;2022-09-17T11:35:17;86479.00;;;4.90
74493;BMP180;62978;51.094;-115.362;2022-09-17T11:41:10;86479.60;;;4.78
74493;BMP180;62978;51.094;-115.362;2022-09-17T11:46:43;86495.80;;;4.72
74493;BMP180;62978;51.094;-115.362;2022-09-17T11:52:03;86500.20;;;4.60
74493;BMP180;62978;51.094;-115.362;2022-09-17T11:57:28;86496.60;;;4.60
74493;BMP180;62978;51.094;-115.362;2022-09-17T12:03:10;86498.40;;;4.44
74493;BMP180;62978;51.094;-115.362;2022-09-17T12:05:53;86503.80;;;4.30
74493;BMP180;62978;51.094;-115.362;2022-09-17T12:11:25;86501.60;;;4.20
74493;BMP180;62978;51.094;-115.362;2022-09-17T12:16:49;86511.60;;;4.10
74493;BMP180;62978;51.094;-115.362;2022-09-17T12:19:43;86514.00;;;4.08
74493;BMP180;62978;51.094;-115.362;2022-09-17T12:22:25;86525.60;;;4.00
74493;BMP180;62978;51.094;-115.362;2022-09-17T12:24:54;86523.60;;;3.94
74493;BMP180;62978;51.094;-115.362;2022-09-17T12:30:30;86518.40;;;3.90
74493;BMP180;62978;51.094;-115.362;2022-09-17T12:33:36;86521.20;;;4.00
74493;BMP180;62978;51.094;-115.362;2022-09-17T12:36:46;86529.80;;;4.10
74493;BMP180;62978;51.094;-115.362;2022-09-17T12:44:53;86527.80;;;4.20
74493;BMP180;62978;51.094;-115.362;2022-09-17T12:48:16;86536.60;;;4.30
74493;BMP180;62978;51.094;-115.362;2022-09-17T12:53:34;86542.80;;;4.38
74493;BMP180;62978;51.094;-115.362;2022-09-17T12:56:42;86540.80;;;4.32
74493;BMP180;62978;51.094;-115.362;2022-09-17T12:59:18;86537.60;;;4.30
74493;BMP180;62978;51.094;-115.362;2022-09-17T13:02:03;86541.20;;;4.30
74493;BMP180;62978;51.094;-115.362;2022-09-17T13:08:24;86543.60;;;4.40
74493;BMP180;62978;51.094;-115.362;2022-09-17T13:17:02;86545.40;;;4.40
74493;BMP180;62978;51.094;-115.362;2022-09-17T13:19:55;86552.20;;;4.50
74493;BMP180;62978;51.094;-115.362;2022-09-17T13:22:30;86550.60;;;4.50
74493;BMP180;62978;51.094;-115.362;2022-09-17T13:25:07;86554.60;;;4.44
74493;BMP180;62978;51.094;-115.362;2022-09-17T13:27:35;86561.80;;;4.40
74493;BMP180;62978;51.094;-115.362;2022-09-17T13:30:12;86559.00;;;4.40
74493;BMP180;62978;51.094;-115.362;2022-09-17T13:32:42;86562.80;;;4.40
74493;BMP180;62978;51.094;-115.362;2022-09-17T13:40:31;86570.40;;;4.38
74493;BMP180;62978;51.094;-115.362;2022-09-17T13:43:18;86570.60;;;4.40
74493;BMP180;62978;51.094;-115.362;2022-09-17T13:48:31;86578.80;;;4.40
74493;BMP180;62978;51.094;-115.362;2022-09-17T13:54:07;86571.40;;;4.40
74493;BMP180;62978;51.094;-115.362;2022-09-17T13:57:03;86572.20;;;4.40
74493;BMP180;62978;51.094;-115.362;2022-09-17T13:59:35;86577.00;;;4.40
74493;BMP180;62978;51.094;-115.362;2022-09-17T14:04:48;86570.80;;;4.40
74493;BMP180;62978;51.094;-115.362;2022-09-17T14:09:58;86567.60;;;4.50
74493;BMP180;62978;51.094;-115.362;2022-09-17T14:23:56;86579.40;;;4.40
74493;BMP180;62978;51.094;-115.362;2022-09-17T14:41:32;86603.20;;;4.32
74493;BMP180;62978;51.094;-115.362;2022-09-17T14:44:07;86599.00;;;4.40
74493;BMP180;62978;51.094;-115.362;2022-09-17T14:47:25;86597.80;;;4.40
74493;BMP180;62978;51.094;-115.362;2022-09-17T14:50:46;86603.60;;;4.42
74493;BMP180;62978;51.094;-115.362;2022-09-17T14:53:49;86596.60;;;4.50
74493;BMP180;62978;51.094;-115.362;2022-09-17T15:00:33;86598.80;;;4.48
74493;BMP180;62978;51.094;-115.362;2022-09-17T15:03:22;86597.40;;;4.50
74493;BMP180;62978;51.094;-115.362;2022-09-17T15:07:25;86599.40;;;4.46
74493;BMP180;62978;51.094;-115.362;2022-09-17T15:09:28;86600.40;;;4.40
74493;BMP180;62978;51.094;-115.362;2022-09-17T15:19:32;86601.20;;;4.58
74493;BMP180;62978;51.094;-115.362;2022-09-17T15:23:39;86598.40;;;4.70
74493;BMP180;62978;51.094;-115.362;2022-09-17T15:26:12;86591.80;;;4.86
74493;BMP180;62978;51.094;-115.362;2022-09-17T15:28:44;86595.20;;;5.00
74493;BMP180;62978;51.094;-115.362;2022-09-17T15:31:37;86589.20;;;5.22
74493;BMP180;62978;51.094;-115.362;2022-09-17T15:34:17;86585.60;;;5.50
74493;BMP180;62978;51.094;-115.362;2022-09-17T15:38:24;86582.00;;;5.80
74493;BMP180;62978;51.094;-115.362;2022-09-17T15:40:45;86577.40;;;6.20
74493;BMP180;62978;51.094;-115.362;2022-09-17T15:43:45;86578.40;;;6.50
74493;BMP180;62978;51.094;-115.362;2022-09-17T15:53:28;86575.20;;;7.40
74493;BMP180;62978;51.094;-115.362;2022-09-17T15:57:18;86576.20;;;7.60
74493;BMP180;62978;51.094;-115.362;2022-09-17T16:10:50;86570.40;;;8.50
74493;BMP180;62978;51.094;-115.362;2022-09-17T16:13:26;86574.20;;;8.64
74493;BMP180;62978;51.094;-115.362;2022-09-17T16:16:05;86571.00;;;8.80
74493;BMP180;62978;51.094;-115.362;2022-09-17T16:18:35;86571.00;;;8.90
74493;BMP180;62978;51.094;-115.362;2022-09-17T16:21:23;86571.60;;;9.00
74493;BMP180;62978;51.094;-115.362;2022-09-17T16:23:51;86566.00;;;9.10
74493;BMP180;62978;51.094;-115.362;2022-09-17T16:27:01;86568.20;;;9.20
74493;BMP180;62978;51.094;-115.362;2022-09-17T16:29:30;86559.80;;;9.28
74493;BMP180;62978;51.094;-115.362;2022-09-17T16:31:58;86564.60;;;9.30
74493;BMP180;62978;51.094;-115.362;2022-09-17T16:34:25;86555.00;;;9.30
74493;BMP180;62978;51.094;-115.362;2022-09-17T16:37:02;86552.20;;;9.40
74493;BMP180;62978;51.094;-115.362;2022-09-17T16:39:41;86550.40;;;9.40
74493;BMP180;62978;51.094;-115.362;2022-09-17T16:42:08;86552.80;;;9.40
74493;BMP180;62978;51.094;-115.362;2022-09-17T16:44:45;86549.00;;;9.40
74493;BMP180;62978;51.094;-115.362;2022-09-17T16:47:16;86552.00;;;9.40
74493;BMP180;62978;51.094;-115.362;2022-09-17T16:49:44;86547.40;;;9.40
74493;BMP180;62978;51.094;-115.362;2022-09-17T16:54:59;86542.80;;;9.50
74493;BMP180;62978;51.094;-115.362;2022-09-17T16:57:46;86539.20;;;9.50
74493;BMP180;62978;51.094;-115.362;2022-09-17T17:00:23;86534.00;;;9.60
74493;BMP180;62978;51.094;-115.362;2022-09-17T17:02:56;86532.80;;;9.62
74493;BMP180;62978;51.094;-115.362;2022-09-17T17:05:25;86536.00;;;9.72
74493;BMP180;62978;51.094;-115.362;2022-09-17T17:07:56;86524.40;;;9.90
74493;BMP180;62978;51.094;-115.362;2022-09-17T17:10:26;86519.00;;;10.00
74493;BMP180;62978;51.094;-115.362;2022-09-17T17:12:55;86520.20;;;10.00
74493;BMP180;62978;51.094;-115.362;2022-09-17T17:15:23;86521.60;;;10.10
74493;BMP180;62978;51.094;-115.362;2022-09-17T17:17:51;86521.60;;;10.20
74493;BMP180;62978;51.094;-115.362;2022-09-17T17:20:19;86516.80;;;10.30
74493;BMP180;62978;51.094;-115.362;2022-09-17T17:22:46;86516.40;;;10.42
74493;BMP180;62978;51.094;-115.362;2022-09-17T17:25:17;86518.00;;;10.50
74493;BMP180;62978;51.094;-115.362;2022-09-17T17:27:48;86512.80;;;10.60
74493;BMP180;62978;51.094;-115.362;2022-09-17T17:30:18;86511.60;;;10.72
74493;BMP180;62978;51.094;-115.362;2022-09-17T17:32:53;86514.80;;;10.80
74493;BMP180;62978;51.094;-115.362;2022-09-17T17:35:42;86516.00;;;10.90
74493;BMP180;62978;51.094;-115.362;2022-09-17T17:38:08;86515.80;;;11.00
74493;BMP180;62978;51.094;-115.362;2022-09-17T17:40:36;86506.20;;;11.08
74493;BMP180;62978;51.094;-115.362;2022-09-17T17:43:04;86505.20;;;11.20
74493;BMP180;62978;51.094;-115.362;2022-09-17T17:45:34;86508.20;;;11.30
74493;BMP180;62978;51.094;-115.362;2022-09-17T17:48:02;86499.00;;;11.40
74493;BMP180;62978;51.094;-115.362;2022-09-17T17:50:30;86500.00;;;11.50
74493;BMP180;62978;51.094;-115.362;2022-09-17T17:52:57;86500.60;;;11.58
74493;BMP180;62978;51.094;-115.362;2022-09-17T17:55:25;86494.00;;;11.60
74493;BMP180;62978;51.094;-115.362;2022-09-17T17:57:56;86490.20;;;11.70
74493;BMP180;62978;51.094;-115.362;2022-09-17T18:00:33;86483.40;;;11.80
74493;BMP180;62978;51.094;-115.362;2022-09-17T18:03:01;86476.20;;;11.80
74493;BMP180;62978;51.094;-115.362;2022-09-17T18:05:33;86474.40;;;11.90
74493;BMP180;62978;51.094;-115.362;2022-09-17T18:08:08;86473.80;;;12.00
74493;BMP180;62978;51.094;-115.362;2022-09-17T18:10:56;86470.60;;;12.16
74493;BMP180;62978;51.094;-115.362;2022-09-17T18:13:55;86464.60;;;12.40
74493;BMP180;62978;51.094;-115.362;2022-09-17T18:16:23;86461.20;;;12.40
74493;BMP180;62978;51.094;-115.362;2022-09-17T18:19:01;86460.40;;;12.50
74493;BMP180;62978;51.094;-115.362;2022-09-17T18:21:32;86458.40;;;12.70